Terminal Aerodrome Forecast
Issued by NWS Cleveland, OH

Home | Current Version | Previous Version | Graphics & Text | Print | Product List | Glossary Off
Versions: 1 2 3 4 5 6 7 8 9 10 11 12 13 14 15 16

000
FTUS41 KCLE 240223 AAA
TAFYNG
TAF AMD
KYNG 240223Z 2402/2424 24006KT P6SM SCT012 OVC025
      TEMPO 2402/2405 -SHRA BKN012
     FM240500 26006KT P6SM BKN025 OVC040
     FM240700 28006KT P6SM BKN040
     FM240900 28006KT P6SM SCT040
     FM241600 27012G20KT P6SM BKN045
     FM242200 27010KT P6SM BKN080=

USA.gov is the U.S. government's official web portal to all federal, state and local government web resources and services.